Time;durP1;ratioP1;P1;durP2;ratioP2;P2;SDS_P1;SDS_P2;PMS_P1;PMS_P2;Temp;Humidity;BMP_temperature;BMP_pressure;BME280_temperature;BME280_humidity;BME280_pressure;Samples;Min_cycle;Max_cycle;Signal;HPM_P1;HPM_P2
2021/08/17 00:02:22;;;;;;;;;12.67;11.33;;;;;;;;2568485;30;150606;-68
2021/08/17 00:04:51;;;;;;;;;13.67;12.33;;;;;;;;2571257;30;151409;-69
2021/08/17 00:07:20;;;;;;;;;13.67;12.00;;;;;;;;2565779;30;150649;-69
2021/08/17 00:09:48;;;;;;;;;11.00;10.00;;;;;;;;2567480;30;151391;-69
2021/08/17 00:12:21;;;;;;;;;11.33;9.33;;;;;;;;2565275;38;149612;-69
2021/08/17 00:14:49;;;;;;;;;13.67;11.00;;;;;;;;2569157;30;151558;-69
2021/08/17 00:17:18;;;;;;;;;11.67;10.00;;;;;;;;2568628;30;150008;-69
2021/08/17 00:19:46;;;;;;;;;12.00;10.33;;;;;;;;2565876;30;151841;-69
2021/08/17 00:22:15;;;;;;;;;11.33;8.67;;;;;;;;2566990;30;150723;-68
2021/08/17 00:24:43;;;;;;;;;13.33;12.00;;;;;;;;2565178;30;151222;-69
2021/08/17 00:27:12;;;;;;;;;14.67;11.67;;;;;;;;2566580;38;151060;-70
2021/08/17 00:29:43;;;;;;;;;12.67;10.00;;;;;;;;2568812;30;150939;-69
2021/08/17 00:32:11;;;;;;;;;10.33;9.00;;;;;;;;2568278;30;149563;-69
2021/08/17 00:34:39;;;;;;;;;8.00;6.33;;;;;;;;2567217;30;151389;-70
2021/08/17 00:37:08;;;;;;;;;9.00;7.00;;;;;;;;2564586;30;151949;-69
2021/08/17 00:39:38;;;;;;;;;11.67;10.00;;;;;;;;2564902;30;149736;-69
2021/08/17 00:42:06;;;;;;;;;11.00;9.00;;;;;;;;2565845;38;151929;-69
2021/08/17 00:44:34;;;;;;;;;9.00;9.00;;;;;;;;2564897;30;151344;-69
2021/08/17 00:47:06;;;;;;;;;10.33;10.00;;;;;;;;2570769;30;149474;-69
2021/08/17 00:49:35;;;;;;;;;9.67;8.00;;;;;;;;2565608;38;151890;-69
2021/08/17 00:52:04;;;;;;;;;8.00;8.00;;;;;;;;2567180;30;149408;-69
2021/08/17 00:54:35;;;;;;;;;9.00;9.00;;;;;;;;2567366;30;151288;-69
2021/08/17 00:57:04;;;;;;;;;11.67;10.00;;;;;;;;2569162;30;151164;-69
2021/08/17 00:59:32;;;;;;;;;11.67;9.67;;;;;;;;2568990;30;149325;-69
2021/08/17 01:02:00;;;;;;;;;11.33;9.00;;;;;;;;2566709;30;151335;-70
2021/08/17 01:04:31;;;;;;;;;9.00;9.00;;;;;;;;2565407;38;151897;-68
2021/08/17 01:07:00;;;;;;;;;13.67;10.33;;;;;;;;2569322;30;149233;-69
2021/08/17 01:09:28;;;;;;;;;14.00;7.67;;;;;;;;2569968;30;151214;-69
2021/08/17 01:11:57;;;;;;;;;10.33;9.33;;;;;;;;2566051;38;149470;-69
2021/08/17 01:14:25;;;;;;;;;12.75;10.75;;;;;;;;2565759;38;150668;-69
2021/08/17 01:16:54;;;;;;;;;11.67;10.33;;;;;;;;2567069;30;151291;-68
2021/08/17 01:19:22;;;;;;;;;11.33;10.33;;;;;;;;2566172;30;149786;-68
2021/08/17 01:21:53;;;;;;;;;10.00;10.00;;;;;;;;2565637;30;151740;-69
2021/08/17 01:24:22;;;;;;;;;12.33;10.00;;;;;;;;2564564;38;151110;-69
2021/08/17 01:26:53;;;;;;;;;16.67;10.00;;;;;;;;2568365;30;149476;-68
2021/08/17 01:29:23;;;;;;;;;14.00;12.25;;;;;;;;2566822;30;150772;-70
2021/08/17 01:31:52;;;;;;;;;10.67;10.67;;;;;;;;2570596;30;151126;-69
2021/08/17 01:34:20;;;;;;;;;11.00;11.00;;;;;;;;2564417;30;151339;-69
2021/08/17 01:36:49;;;;;;;;;10.67;9.67;;;;;;;;2565592;30;151723;-69
2021/08/17 01:39:18;;;;;;;;;12.00;12.00;;;;;;;;2566505;30;149933;-70
2021/08/17 01:41:46;;;;;;;;;11.33;11.00;;;;;;;;2567747;30;150737;-70
2021/08/17 01:44:17;;;;;;;;;13.33;12.00;;;;;;;;2566918;30;151014;-70
2021/08/17 01:46:46;;;;;;;;;13.67;10.67;;;;;;;;2565817;38;149636;-69
2021/08/17 01:49:15;;;;;;;;;17.00;13.33;;;;;;;;2565168;30;151295;-70
2021/08/17 01:51:43;;;;;;;;;10.00;10.00;;;;;;;;2564363;38;151142;-69
2021/08/17 01:54:11;;;;;;;;;14.00;10.00;;;;;;;;2567117;30;149430;-68
2021/08/17 01:56:40;;;;;;;;;12.33;11.00;;;;;;;;2564114;38;151945;-68
2021/08/17 01:59:08;;;;;;;;;13.75;11.00;;;;;;;;2566528;30;149506;-69
2021/08/17 02:01:39;;;;;;;;;10.67;9.33;;;;;;;;2568946;30;151550;-69
2021/08/17 02:04:07;;;;;;;;;18.33;11.67;;;;;;;;2563829;38;152323;-69
2021/08/17 02:06:35;;;;;;;;;11.33;10.33;;;;;;;;2566977;30;149356;-69
2021/08/17 02:09:04;;;;;;;;;12.67;10.33;;;;;;;;2567278;30;151655;-68
2021/08/17 02:11:32;;;;;;;;;13.00;12.00;;;;;;;;2567372;30;151131;-69
2021/08/17 02:14:00;;;;;;;;;12.67;10.67;;;;;;;;2564608;38;149468;-69
2021/08/17 02:16:29;;;;;;;;;12.67;12.33;;;;;;;;2566431;30;151573;-69
2021/08/17 02:19:00;;;;;;;;;14.00;10.33;;;;;;;;2567054;30;149522;-70
2021/08/17 02:21:28;;;;;;;;;12.33;10.33;;;;;;;;2567557;30;150581;-69
2021/08/17 02:23:56;;;;;;;;;13.33;12.00;;;;;;;;2564512;38;151046;-69
2021/08/17 02:26:24;;;;;;;;;11.33;11.33;;;;;;;;2567324;30;149302;-70
2021/08/17 02:28:53;;;;;;;;;12.00;10.00;;;;;;;;2567596;30;150456;-69
2021/08/17 02:31:21;;;;;;;;;15.67;10.67;;;;;;;;2564082;30;150605;-69
2021/08/17 02:33:49;;;;;;;;;14.33;11.33;;;;;;;;2568121;30;151024;-69
2021/08/17 02:36:20;;;;;;;;;12.00;11.00;;;;;;;;2568196;30;151569;-68
2021/08/17 02:38:48;;;;;;;;;14.33;12.33;;;;;;;;2565920;38;149891;-69
2021/08/17 02:41:17;;;;;;;;;13.33;12.00;;;;;;;;2566977;30;150655;-68
2021/08/17 02:43:45;;;;;;;;;12.25;11.75;;;;;;;;2565020;30;151361;-68
2021/08/17 02:46:13;;;;;;;;;10.00;10.00;;;;;;;;2563926;38;149536;-68
2021/08/17 02:48:42;;;;;;;;;12.67;12.67;;;;;;;;2567064;30;150870;-68
2021/08/17 02:51:10;;;;;;;;;15.33;12.67;;;;;;;;2564178;38;151443;-69
2021/08/17 02:53:41;;;;;;;;;8.33;8.33;;;;;;;;2568406;30;150220;-69
2021/08/17 02:56:09;;;;;;;;;13.33;10.00;;;;;;;;2566845;30;150974;-69
2021/08/17 02:58:38;;;;;;;;;15.67;13.00;;;;;;;;2569015;30;151951;-72
2021/08/17 03:01:06;;;;;;;;;12.67;12.00;;;;;;;;2566928;30;150734;-69
2021/08/17 03:03:34;;;;;;;;;12.67;11.00;;;;;;;;2565761;38;151359;-69
2021/08/17 03:06:03;;;;;;;;;15.33;11.33;;;;;;;;2564000;38;149666;-69
2021/08/17 03:08:32;;;;;;;;;14.67;12.00;;;;;;;;2569342;30;151460;-69
2021/08/17 03:11:04;;;;;;;;;11.33;11.00;;;;;;;;2566683;30;151400;-69
2021/08/17 03:13:33;;;;;;;;;13.33;11.67;;;;;;;;2565942;38;149614;-69
2021/08/17 03:16:01;;;;;;;;;13.00;11.00;;;;;;;;2565333;38;150827;-68
2021/08/17 03:18:29;;;;;;;;;13.00;12.00;;;;;;;;2567869;30;151263;-69
2021/08/17 03:20:58;;;;;;;;;14.33;13.00;;;;;;;;2570329;30;149554;-69
2021/08/17 03:23:27;;;;;;;;;12.33;12.00;;;;;;;;2566274;30;151718;-69
2021/08/17 03:25:56;;;;;;;;;14.00;14.00;;;;;;;;2565920;30;149488;-69
2021/08/17 03:28:27;;;;;;;;;12.00;11.00;;;;;;;;2564886;30;151671;-69
2021/08/17 03:30:55;;;;;;;;;17.33;13.00;;;;;;;;2566193;38;151602;-69
2021/08/17 03:33:23;;;;;;;;;12.00;11.33;;;;;;;;2565434;38;149550;-68
2021/08/17 03:35:52;;;;;;;;;11.75;11.75;;;;;;;;2569472;30;151682;-69
2021/08/17 03:38:21;;;;;;;;;16.00;13.75;;;;;;;;2564611;38;150986;-69
2021/08/17 03:40:49;;;;;;;;;12.00;12.00;;;;;;;;2565129;30;150784;-69
2021/08/17 03:43:18;;;;;;;;;14.00;12.33;;;;;;;;2567590;31;150720;-69
2021/08/17 03:45:48;;;;;;;;;12.50;12.25;;;;;;;;2565706;30;149210;-69
2021/08/17 03:48:17;;;;;;;;;11.50;11.25;;;;;;;;2567073;30;151139;-69
2021/08/17 03:50:45;;;;;;;;;13.00;11.67;;;;;;;;2566186;30;151746;-69
2021/08/17 03:53:13;;;;;;;;;13.33;11.33;;;;;;;;2565540;38;149385;-69
2021/08/17 03:55:42;;;;;;;;;11.00;11.00;;;;;;;;2565812;30;151542;-69
2021/08/17 03:58:10;;;;;;;;;15.33;12.00;;;;;;;;2567089;30;151905;-69
2021/08/17 04:00:38;;;;;;;;;12.00;11.00;;;;;;;;2564220;38;149356;-69
2021/08/17 04:03:09;;;;;;;;;8.00;6.00;;;;;;;;2566972;38;151409;-69
2021/08/17 04:05:38;;;;;;;;;14.25;11.75;;;;;;;;2568878;38;151023;-69
2021/08/17 04:08:07;;;;;;;;;13.00;11.00;;;;;;;;2564316;38;151411;-68
2021/08/17 04:10:36;;;;;;;;;9.00;8.00;;;;;;;;2566797;30;151790;-68
2021/08/17 04:13:04;;;;;;;;;11.00;10.33;;;;;;;;2565033;38;149777;-70
2021/08/17 04:15:33;;;;;;;;;11.00;9.00;;;;;;;;2565360;38;150782;-68
2021/08/17 04:18:01;;;;;;;;;12.67;10.67;;;;;;;;2566560;30;151162;-68
2021/08/17 04:20:32;;;;;;;;;11.00;9.67;;;;;;;;2565315;38;149913;-69
2021/08/17 04:23:01;;;;;;;;;14.75;11.50;;;;;;;;2566530;38;151021;-69
2021/08/17 04:25:29;;;;;;;;;11.33;11.33;;;;;;;;2565301;38;151803;-69
2021/08/17 04:27:57;;;;;;;;;14.33;11.67;;;;;;;;2567801;30;149318;-69
2021/08/17 04:30:26;;;;;;;;;11.00;8.67;;;;;;;;2565934;38;150010;-68
2021/08/17 04:32:54;;;;;;;;;12.00;10.67;;;;;;;;2565139;38;149555;-69
2021/08/17 04:35:22;;;;;;;;;14.50;13.50;;;;;;;;2564657;30;151499;-69
2021/08/17 04:37:53;;;;;;;;;15.00;12.00;;;;;;;;2564842;30;150990;-68
2021/08/17 04:40:22;;;;;;;;;14.00;11.50;;;;;;;;2564623;30;150504;-69
2021/08/17 04:42:50;;;;;;;;;15.00;14.00;;;;;;;;2567039;30;150641;-68
2021/08/17 04:45:18;;;;;;;;;13.33;9.67;;;;;;;;2566402;30;151322;-69
2021/08/17 04:47:47;;;;;;;;;13.75;12.00;;;;;;;;2568054;38;149616;-69
2021/08/17 04:50:16;;;;;;;;;13.00;11.00;;;;;;;;2563428;38;152079;-68
2021/08/17 04:52:44;;;;;;;;;14.75;8.25;;;;;;;;2567028;30;150136;-70
2021/08/17 04:55:16;;;;;;;;;11.75;11.75;;;;;;;;2566055;30;150674;-69
2021/08/17 04:57:54;;;;;;;;;12.00;9.00;;;;;;;;2565346;30;151679;-69
2021/08/17 05:00:23;;;;;;;;;12.25;11.75;;;;;;;;2565706;38;149652;-69
2021/08/17 05:02:51;;;;;;;;;14.00;11.75;;;;;;;;2565221;30;151440;-69
2021/08/17 05:05:20;;;;;;;;;11.75;9.50;;;;;;;;2565616;30;151662;-69
2021/08/17 05:07:49;;;;;;;;;14.00;9.25;;;;;;;;2569373;30;150704;-69
2021/08/17 05:10:20;;;;;;;;;10.25;10.00;;;;;;;;2567013;38;150774;-70
2021/08/17 05:12:49;;;;;;;;;10.50;9.00;;;;;;;;2567350;30;149438;-68
2021/08/17 05:15:17;;;;;;;;;11.00;11.00;;;;;;;;2568340;30;150393;-67
2021/08/17 05:17:46;;;;;;;;;11.50;10.00;;;;;;;;2564502;30;151799;-67
2021/08/17 05:20:18;;;;;;;;;16.00;12.50;;;;;;;;2565431;30;150769;-68
2021/08/17 05:22:46;;;;;;;;;17.75;13.00;;;;;;;;2570034;30;150041;-68
2021/08/17 05:25:15;;;;;;;;;20.00;12.75;;;;;;;;2566712;30;153398;-68
2021/08/17 05:27:47;;;;;;;;;15.50;11.00;;;;;;;;2566178;30;149130;-68
2021/08/17 05:30:15;;;;;;;;;11.50;11.25;;;;;;;;2569300;30;151005;-67
2021/08/17 05:32:44;;;;;;;;;12.75;10.75;;;;;;;;2566262;38;152163;-67
2021/08/17 05:35:12;;;;;;;;;16.00;12.25;;;;;;;;2567398;30;150511;-70
2021/08/17 05:37:41;;;;;;;;;12.00;9.67;;;;;;;;2566675;30;151171;-68
2021/08/17 05:40:09;;;;;;;;;13.25;12.00;;;;;;;;2562462;38;149396;-68
2021/08/17 05:42:38;;;;;;;;;11.00;10.00;;;;;;;;2566855;38;150346;-68
2021/08/17 05:45:10;;;;;;;;;17.75;13.00;;;;;;;;2564507;38;151839;-70
2021/08/17 05:47:43;;;;;;;;;11.00;9.75;;;;;;;;2564684;38;149707;-69
2021/08/17 05:50:12;;;;;;;;;12.33;12.00;;;;;;;;2566647;30;150535;-68
2021/08/17 05:52:40;;;;;;;;;14.33;11.67;;;;;;;;2563975;30;151927;-68
2021/08/17 05:55:09;;;;;;;;;12.25;11.75;;;;;;;;2569491;30;150099;-70
2021/08/17 05:57:38;;;;;;;;;14.25;12.00;;;;;;;;2568175;30;151508;-68
2021/08/17 06:00:10;;;;;;;;;13.00;10.75;;;;;;;;2568034;30;149618;-67
2021/08/17 06:02:38;;;;;;;;;14.25;12.25;;;;;;;;2565646;30;150976;-70
2021/08/17 06:05:07;;;;;;;;;9.75;9.75;;;;;;;;2567010;38;151153;-68
2021/08/17 06:07:36;;;;;;;;;11.50;10.75;;;;;;;;2566651;30;150670;-70
2021/08/17 06:10:04;;;;;;;;;10.00;8.00;;;;;;;;2564388;30;151327;-69
2021/08/17 06:12:33;;;;;;;;;11.00;11.00;;;;;;;;2566004;30;152139;-72
2021/08/17 06:15:01;;;;;;;;;11.67;10.00;;;;;;;;2564853;38;149293;-73
2021/08/17 06:17:32;;;;;;;;;11.50;10.00;;;;;;;;2567893;30;150649;-71
2021/08/17 06:20:00;;;;;;;;;11.67;11.00;;;;;;;;2565302;38;150664;-73
2021/08/17 06:22:28;;;;;;;;;12.50;11.75;;;;;;;;2564019;38;150667;-70
2021/08/17 06:24:57;;;;;;;;;12.00;12.00;;;;;;;;2564933;30;151171;-72
2021/08/17 06:27:25;;;;;;;;;12.25;11.00;;;;;;;;2564599;30;149444;-68
2021/08/17 06:29:54;;;;;;;;;10.00;9.00;;;;;;;;2569094;30;151577;-69
2021/08/17 06:32:22;;;;;;;;;12.75;11.00;;;;;;;;2565712;30;151959;-71
2021/08/17 06:34:53;;;;;;;;;9.75;9.50;;;;;;;;2568928;30;150096;-71
2021/08/17 06:37:24;;;;;;;;;23.50;17.50;;;;;;;;2564899;30;151466;-71
2021/08/17 06:39:52;;;;;;;;;11.00;11.00;;;;;;;;2570165;30;151882;-70
2021/08/17 06:42:20;;;;;;;;;12.33;11.33;;;;;;;;2564227;31;151765;-76
2021/08/17 06:44:49;;;;;;;;;12.25;11.25;;;;;;;;2564024;30;150890;-77
2021/08/17 06:47:17;;;;;;;;;11.00;7.50;;;;;;;;2564979;30;149252;-72
2021/08/17 06:49:45;;;;;;;;;12.25;10.75;;;;;;;;2569007;30;150643;-72
2021/08/17 06:52:16;;;;;;;;;13.50;10.75;;;;;;;;2564598;38;150990;-72
2021/08/17 06:54:45;;;;;;;;;11.00;10.00;;;;;;;;2564473;30;150812;-72
2021/08/17 06:57:13;;;;;;;;;12.25;9.75;;;;;;;;2564973;30;151489;-73
2021/08/17 06:59:41;;;;;;;;;13.00;11.33;;;;;;;;2571034;30;151036;-73
2021/08/17 07:02:10;;;;;;;;;13.33;9.33;;;;;;;;2566155;30;150794;-72
2021/08/17 07:04:38;;;;;;;;;12.33;11.00;;;;;;;;2569079;30;151484;-74
2021/08/17 07:07:06;;;;;;;;;17.00;15.00;;;;;;;;2565404;30;149823;-72
2021/08/17 07:09:37;;;;;;;;;14.50;12.00;;;;;;;;2566447;30;151539;-74
2021/08/17 07:12:06;;;;;;;;;13.00;12.00;;;;;;;;2564251;38;151164;-73
2021/08/17 07:14:34;;;;;;;;;13.00;10.75;;;;;;;;2567090;30;149589;-72
2021/08/17 07:17:03;;;;;;;;;11.50;6.50;;;;;;;;2564536;30;151664;-78
2021/08/17 07:19:31;;;;;;;;;13.00;12.00;;;;;;;;2565482;30;149795;-72
2021/08/17 07:22:01;;;;;;;;;13.33;12.33;;;;;;;;2566287;38;149727;-74
2021/08/17 07:24:29;;;;;;;;;13.50;13.00;;;;;;;;2565014;38;151098;-76
2021/08/17 07:27:00;;;;;;;;;9.33;9.33;;;;;;;;2566829;30;149883;-74
2021/08/17 07:29:28;;;;;;;;;11.00;10.00;;;;;;;;2567763;30;151460;-77
2021/08/17 07:31:57;;;;;;;;;10.75;10.00;;;;;;;;2563734;38;151456;-74
2021/08/17 07:34:25;;;;;;;;;20.75;15.50;;;;;;;;2564399;30;149580;-75
2021/08/17 07:36:53;;;;;;;;;15.67;11.33;;;;;;;;2564844;30;151895;-79
2021/08/17 07:39:22;;;;;;;;;11.00;9.67;;;;;;;;2566411;30;152253;-74
2021/08/17 07:41:52;;;;;;;;;15.67;12.33;;;;;;;;2565663;30;150241;-74
2021/08/17 07:44:25;;;;;;;;;13.33;11.33;;;;;;;;2567997;30;150539;-75
2021/08/17 07:46:54;;;;;;;;;6.00;5.33;;;;;;;;2565902;30;149485;-74
2021/08/17 07:49:22;;;;;;;;;10.33;10.00;;;;;;;;2565575;38;151186;-78
2021/08/17 07:51:50;;;;;;;;;13.00;13.00;;;;;;;;2567772;30;151199;-81
2021/08/17 07:54:19;;;;;;;;;12.33;11.00;;;;;;;;2566207;30;149360;-80
2021/08/17 07:56:48;;;;;;;;;14.00;13.00;;;;;;;;2562868;31;151015;-76
2021/08/17 07:59:16;;;;;;;;;14.00;11.67;;;;;;;;2568167;30;151190;-78
2021/08/17 08:01:49;;;;;;;;;16.67;14.00;;;;;;;;2565351;30;150107;-77
2021/08/17 08:04:17;;;;;;;;;14.67;14.33;;;;;;;;2567687;30;150380;-73
2021/08/17 08:06:45;;;;;;;;;16.00;15.67;;;;;;;;2570120;30;151285;-74
2021/08/17 08:09:16;;;;;;;;;12.00;12.00;;;;;;;;2569925;30;151987;-74
2021/08/17 08:11:45;;;;;;;;;13.67;12.33;;;;;;;;2564523;30;150814;-73
2021/08/17 08:14:13;;;;;;;;;19.00;18.33;;;;;;;;2567467;30;149268;-73
2021/08/17 08:16:41;;;;;;;;;14.00;13.67;;;;;;;;2567798;30;150644;-73
2021/08/17 08:19:12;;;;;;;;;15.33;13.00;;;;;;;;2567871;30;151879;-74
2021/08/17 08:21:40;;;;;;;;;14.33;14.33;;;;;;;;2568990;30;149205;-72
2021/08/17 08:24:09;;;;;;;;;18.00;17.00;;;;;;;;2566598;30;150358;-73
2021/08/17 08:26:37;;;;;;;;;18.00;15.33;;;;;;;;2565626;38;151288;-73
2021/08/17 08:29:05;;;;;;;;;19.67;17.00;;;;;;;;2566947;38;149714;-72
2021/08/17 08:31:34;;;;;;;;;16.67;15.33;;;;;;;;2566334;30;151256;-73
2021/08/17 08:34:02;;;;;;;;;8.00;8.00;;;;;;;;2566249;38;149593;-76
2021/08/17 08:36:33;;;;;;;;;8.00;7.00;;;;;;;;2566432;38;151266;-80
2021/08/17 08:39:03;;;;;;;;;9.67;8.00;;;;;;;;2566155;30;151057;-80
2021/08/17 08:41:32;;;;;;;;;8.67;8.00;;;;;;;;2566189;30;149571;-73
2021/08/17 08:44:00;;;;;;;;;10.67;9.67;;;;;;;;2568313;30;151501;-72
2021/08/17 08:46:32;;;;;;;;;11.00;8.00;;;;;;;;2567865;30;151217;-72
2021/08/17 08:49:03;;;;;;;;;8.00;7.00;;;;;;;;2562757;38;150942;-72
2021/08/17 08:51:36;;;;;;;;;7.00;5.67;;;;;;;;2568746;30;150754;-72
2021/08/17 08:54:04;;;;;;;;;8.33;8.33;;;;;;;;2567179;30;150218;-72
2021/08/17 08:56:33;;;;;;;;;8.33;8.33;;;;;;;;2568823;30;154529;-71
2021/08/17 08:59:02;;;;;;;;;10.00;7.33;;;;;;;;2564890;30;151969;-72
2021/08/17 09:01:30;;;;;;;;;10.00;8.33;;;;;;;;2567142;30;149428;-71
2021/08/17 09:03:59;;;;;;;;;11.33;9.67;;;;;;;;2565686;30;151064;-73
2021/08/17 09:06:28;;;;;;;;;8.67;7.33;;;;;;;;2567254;30;151452;-73
2021/08/17 09:09:11;;;;;;;;;5.00;5.00;;;;;;;;2564940;38;149493;-70
2021/08/17 09:11:40;;;;;;;;;9.00;6.67;;;;;;;;2567933;38;150744;-71
2021/08/17 09:14:18;;;;;;;;;8.33;7.00;;;;;;;;2564082;30;149536;-70
2021/08/17 09:16:48;;;;;;;;;4.00;4.00;;;;;;;;2567196;30;151205;-73
2021/08/17 09:19:31;;;;;;;;;7.00;5.00;;;;;;;;2566931;30;151718;-73
2021/08/17 09:22:01;;;;;;;;;5.00;4.00;;;;;;;;2566849;38;149231;-72
2021/08/17 09:24:33;;;;;;;;;6.00;3.00;;;;;;;;2566386;38;150587;-71
2021/08/17 09:27:03;;;;;;;;;4.75;4.00;;;;;;;;2566966;30;152252;-71
2021/08/17 09:29:33;;;;;;;;;3.50;3.00;;;;;;;;2565794;30;149320;-70
2021/08/17 09:32:02;;;;;;;;;5.75;3.50;;;;;;;;2569395;30;150841;-71
2021/08/17 09:34:32;;;;;;;;;4.00;3.00;;;;;;;;2568584;30;152215;-71
2021/08/17 09:37:04;;;;;;;;;2.00;2.00;;;;;;;;2564753;38;150639;-70
2021/08/17 09:39:39;;;;;;;;;3.00;3.00;;;;;;;;2564135;30;152015;-71
2021/08/17 09:42:18;;;;;;;;;5.67;4.00;;;;;;;;2564406;38;150111;-72
2021/08/17 09:44:48;;;;;;;;;2.75;2.00;;;;;;;;2567765;30;150681;-71
2021/08/17 09:47:16;;;;;;;;;2.00;1.00;;;;;;;;2567300;30;151071;-71
2021/08/17 09:49:45;;;;;;;;;2.00;1.33;;;;;;;;2564495;30;150869;-70
2021/08/17 09:52:14;;;;;;;;;3.00;3.00;;;;;;;;2562978;30;151927;-71
2021/08/17 09:54:46;;;;;;;;;1.75;1.75;;;;;;;;2567786;30;151884;-71
2021/08/17 09:57:15;;;;;;;;;2.00;1.50;;;;;;;;2566680;38;149584;-69
2021/08/17 09:59:44;;;;;;;;;1.00;1.00;;;;;;;;2565725;30;151620;-71
2021/08/17 10:02:14;;;;;;;;;2.00;2.00;;;;;;;;2564711;38;149316;-71
2021/08/17 10:04:45;;;;;;;;;3.00;2.50;;;;;;;;2564238;30;151499;-71
2021/08/17 10:07:13;;;;;;;;;3.50;3.00;;;;;;;;2563456;30;151417;-71
2021/08/17 10:09:42;;;;;;;;;2.00;2.00;;;;;;;;2566156;38;149874;-71
2021/08/17 10:12:13;;;;;;;;;1.75;1.75;;;;;;;;2564224;31;150968;-70
2021/08/17 10:14:42;;;;;;;;;0.75;0.75;;;;;;;;2564318;38;151027;-68
2021/08/17 10:17:10;;;;;;;;;2.00;2.00;;;;;;;;2570413;30;149621;-67
2021/08/17 10:19:39;;;;;;;;;0.00;0.00;;;;;;;;2568432;38;150602;-72
2021/08/17 10:22:08;;;;;;;;;2.25;1.00;;;;;;;;2569454;30;149236;-76
2021/08/17 10:24:39;;;;;;;;;1.00;1.00;;;;;;;;2565354;30;150595;-74
2021/08/17 10:27:27;;;;;;;;;1.00;1.00;;;;;;;;2564536;38;151847;-75
2021/08/17 10:30:00;;;;;;;;;1.67;1.67;;;;;;;;2567185;30;149408;-76
2021/08/17 10:32:38;;;;;;;;;0.00;0.00;;;;;;;;2565574;38;151239;-76
2021/08/17 10:35:07;;;;;;;;;1.33;1.33;;;;;;;;2565287;38;151137;-78
2021/08/17 10:37:37;;;;;;;;;3.00;2.00;;;;;;;;2568321;30;149241;-76
2021/08/17 10:40:05;;;;;;;;;2.00;2.00;;;;;;;;2568171;30;153164;-78
